sensor_id;sensor_type;location;lat;lon;timestamp;temperature;humidity
6538;DHT22;3302;52.508;13.454;2022-10-17T00:02:02;13.80;99.90
6538;DHT22;3302;52.508;13.454;2022-10-17T00:04:28;13.80;99.90
6538;DHT22;3302;52.508;13.454;2022-10-17T00:06:54;13.80;99.90
6538;DHT22;3302;52.508;13.454;2022-10-17T00:09:20;13.80;99.90
6538;DHT22;3302;52.508;13.454;2022-10-17T00:11:45;13.90;99.90
6538;DHT22;3302;52.508;13.454;2022-10-17T00:14:11;13.80;99.90
6538;DHT22;3302;52.508;13.454;2022-10-17T00:16:37;13.80;99.90
6538;DHT22;3302;52.508;13.454;2022-10-17T00:19:04;13.70;99.90
6538;DHT22;3302;52.508;13.454;2022-10-17T00:21:30;13.70;99.90
6538;DHT22;3302;52.508;13.454;2022-10-17T00:23:56;13.70;99.90
6538;DHT22;3302;52.508;13.454;2022-10-17T00:26:23;13.80;99.90
6538;DHT22;3302;52.508;13.454;2022-10-17T00:28:51;13.80;99.90
6538;DHT22;3302;52.508;13.454;2022-10-17T00:31:19;13.80;99.90
6538;DHT22;3302;52.508;13.454;2022-10-17T00:33:46;13.90;99.90
6538;DHT22;3302;52.508;13.454;2022-10-17T00:36:17;13.80;99.90
6538;DHT22;3302;52.508;13.454;2022-10-17T00:38:45;13.70;99.90
6538;DHT22;3302;52.508;13.454;2022-10-17T00:41:14;13.70;99.90
6538;DHT22;3302;52.508;13.454;2022-10-17T00:43:58;13.70;99.90
6538;DHT22;3302;52.508;13.454;2022-10-17T00:46:28;13.70;99.90
6538;DHT22;3302;52.508;13.454;2022-10-17T00:48:55;13.70;99.90
6538;DHT22;3302;52.508;13.454;2022-10-17T00:51:36;13.70;99.90
6538;DHT22;3302;52.508;13.454;2022-10-17T00:54:04;13.80;99.90
6538;DHT22;3302;52.508;13.454;2022-10-17T00:56:30;13.80;99.90
6538;DHT22;3302;52.508;13.454;2022-10-17T00:58:56;13.80;99.90
6538;DHT22;3302;52.508;13.454;2022-10-17T01:01:22;13.80;99.90
6538;DHT22;3302;52.508;13.454;2022-10-17T01:03:47;13.80;99.90
6538;DHT22;3302;52.508;13.454;2022-10-17T01:06:13;13.90;99.90
6538;DHT22;3302;52.508;13.454;2022-10-17T01:08:39;14.00;99.90
6538;DHT22;3302;52.508;13.454;2022-10-17T01:11:12;14.00;99.90
6538;DHT22;3302;52.508;13.454;2022-10-17T01:17:11;13.90;99.90
6538;DHT22;3302;52.508;13.454;2022-10-17T01:22:30;13.80;99.90
6538;DHT22;3302;52.508;13.454;2022-10-17T01:25:21;13.70;99.90
6538;DHT22;3302;52.508;13.454;2022-10-17T01:28:09;13.70;99.90
6538;DHT22;3302;52.508;13.454;2022-10-17T01:30:51;13.60;99.90
6538;DHT22;3302;52.508;13.454;2022-10-17T01:33:22;13.60;99.90
6538;DHT22;3302;52.508;13.454;2022-10-17T01:35:58;13.50;99.90
6538;DHT22;3302;52.508;13.454;2022-10-17T01:38:48;13.50;99.90
6538;DHT22;3302;52.508;13.454;2022-10-17T01:43:54;13.70;99.90
6538;DHT22;3302;52.508;13.454;2022-10-17T01:46:31;13.70;99.90
6538;DHT22;3302;52.508;13.454;2022-10-17T01:49:02;13.70;99.90
6538;DHT22;3302;52.508;13.454;2022-10-17T01:51:50;13.70;99.90
6538;DHT22;3302;52.508;13.454;2022-10-17T01:54:30;13.70;99.90
6538;DHT22;3302;52.508;13.454;2022-10-17T01:57:00;13.70;99.90
6538;DHT22;3302;52.508;13.454;2022-10-17T01:59:35;13.70;99.90
6538;DHT22;3302;52.508;13.454;2022-10-17T02:02:01;13.70;99.90
6538;DHT22;3302;52.508;13.454;2022-10-17T02:04:28;13.70;99.90
6538;DHT22;3302;52.508;13.454;2022-10-17T02:06:54;13.70;99.90
6538;DHT22;3302;52.508;13.454;2022-10-17T02:09:24;13.60;99.90
6538;DHT22;3302;52.508;13.454;2022-10-17T02:14:58;13.50;99.90
6538;DHT22;3302;52.508;13.454;2022-10-17T02:20:36;13.50;99.90
6538;DHT22;3302;52.508;13.454;2022-10-17T02:23:12;13.50;99.90
6538;DHT22;3302;52.508;13.454;2022-10-17T02:25:52;13.40;99.90
6538;DHT22;3302;52.508;13.454;2022-10-17T02:28:37;13.50;99.90
6538;DHT22;3302;52.508;13.454;2022-10-17T02:31:10;13.40;99.90
6538;DHT22;3302;52.508;13.454;2022-10-17T02:33:46;13.40;99.90
6538;DHT22;3302;52.508;13.454;2022-10-17T02:36:18;13.40;99.90
6538;DHT22;3302;52.508;13.454;2022-10-17T02:38:45;13.40;99.90
6538;DHT22;3302;52.508;13.454;2022-10-17T02:41:15;13.40;99.90
6538;DHT22;3302;52.508;13.454;2022-10-17T02:43:43;13.40;99.90
6538;DHT22;3302;52.508;13.454;2022-10-17T02:46:13;13.50;99.90
6538;DHT22;3302;52.508;13.454;2022-10-17T02:48:54;13.40;99.90
6538;DHT22;3302;52.508;13.454;2022-10-17T02:51:34;13.40;99.90
6538;DHT22;3302;52.508;13.454;2022-10-17T02:57:43;13.30;99.90
6538;DHT22;3302;52.508;13.454;2022-10-17T03:00:05;13.40;99.90
6538;DHT22;3302;52.508;13.454;2022-10-17T03:02:52;13.30;99.90
6538;DHT22;3302;52.508;13.454;2022-10-17T03:05:26;13.30;99.90
6538;DHT22;3302;52.508;13.454;2022-10-17T03:07:53;13.40;99.90
6538;DHT22;3302;52.508;13.454;2022-10-17T03:10:20;13.30;99.90
6538;DHT22;3302;52.508;13.454;2022-10-17T03:12:46;13.40;99.90
6538;DHT22;3302;52.508;13.454;2022-10-17T03:15:12;13.40;99.90
6538;DHT22;3302;52.508;13.454;2022-10-17T03:17:37;13.40;99.90
6538;DHT22;3302;52.508;13.454;2022-10-17T03:20:04;13.30;99.90
6538;DHT22;3302;52.508;13.454;2022-10-17T03:22:31;13.30;99.90
6538;DHT22;3302;52.508;13.454;2022-10-17T03:24:57;13.30;99.90
6538;DHT22;3302;52.508;13.454;2022-10-17T03:27:23;13.30;99.90
6538;DHT22;3302;52.508;13.454;2022-10-17T03:29:49;13.30;99.90
6538;DHT22;3302;52.508;13.454;2022-10-17T03:32:14;13.30;99.90
6538;DHT22;3302;52.508;13.454;2022-10-17T03:34:40;13.40;99.90
6538;DHT22;3302;52.508;13.454;2022-10-17T03:37:06;13.50;99.90
6538;DHT22;3302;52.508;13.454;2022-10-17T03:39:31;13.50;99.90
6538;DHT22;3302;52.508;13.454;2022-10-17T03:41:57;13.40;99.90
6538;DHT22;3302;52.508;13.454;2022-10-17T03:44:23;13.40;99.90
6538;DHT22;3302;52.508;13.454;2022-10-17T03:46:48;13.30;99.90
6538;DHT22;3302;52.508;13.454;2022-10-17T03:49:14;13.30;99.90
6538;DHT22;3302;52.508;13.454;2022-10-17T03:51:40;13.30;99.90
6538;DHT22;3302;52.508;13.454;2022-10-17T03:54:06;13.20;99.90
6538;DHT22;3302;52.508;13.454;2022-10-17T03:56:31;13.20;99.90
6538;DHT22;3302;52.508;13.454;2022-10-17T03:58:57;13.30;99.90
6538;DHT22;3302;52.508;13.454;2022-10-17T04:01:23;13.40;99.90
6538;DHT22;3302;52.508;13.454;2022-10-17T04:03:50;13.40;99.90
6538;DHT22;3302;52.508;13.454;2022-10-17T04:06:16;13.30;99.90
6538;DHT22;3302;52.508;13.454;2022-10-17T04:08:42;13.30;99.90
6538;DHT22;3302;52.508;13.454;2022-10-17T04:11:09;13.30;99.90
6538;DHT22;3302;52.508;13.454;2022-10-17T04:13:35;13.30;99.90
6538;DHT22;3302;52.508;13.454;2022-10-17T04:16:04;13.20;99.90
6538;DHT22;3302;52.508;13.454;2022-10-17T04:18:30;13.20;99.90
6538;DHT22;3302;52.508;13.454;2022-10-17T04:20:56;13.30;99.90
6538;DHT22;3302;52.508;13.454;2022-10-17T04:23:22;13.30;99.90
6538;DHT22;3302;52.508;13.454;2022-10-17T04:25:48;13.20;99.90
6538;DHT22;3302;52.508;13.454;2022-10-17T04:28:14;13.20;99.90
6538;DHT22;3302;52.508;13.454;2022-10-17T04:30:40;13.20;99.90
6538;DHT22;3302;52.508;13.454;2022-10-17T04:33:06;13.20;99.90
6538;DHT22;3302;52.508;13.454;2022-10-17T04:35:32;13.20;99.90
6538;DHT22;3302;52.508;13.454;2022-10-17T04:37:58;13.20;99.90
6538;DHT22;3302;52.508;13.454;2022-10-17T04:40:23;13.20;99.90
6538;DHT22;3302;52.508;13.454;2022-10-17T04:42:49;13.20;99.90
6538;DHT22;3302;52.508;13.454;2022-10-17T04:45:16;13.20;99.90
6538;DHT22;3302;52.508;13.454;2022-10-17T04:47:41;13.20;99.90
6538;DHT22;3302;52.508;13.454;2022-10-17T04:50:07;13.20;99.90
6538;DHT22;3302;52.508;13.454;2022-10-17T04:52:36;13.10;99.90
6538;DHT22;3302;52.508;13.454;2022-10-17T04:55:04;13.10;99.90
6538;DHT22;3302;52.508;13.454;2022-10-17T04:57:34;13.10;99.90
6538;DHT22;3302;52.508;13.454;2022-10-17T05:00:00;13.10;99.90
6538;DHT22;3302;52.508;13.454;2022-10-17T05:02:26;13.10;99.90
6538;DHT22;3302;52.508;13.454;2022-10-17T05:04:51;13.20;99.90
6538;DHT22;3302;52.508;13.454;2022-10-17T05:07:17;13.10;99.90
6538;DHT22;3302;52.508;13.454;2022-10-17T05:09:43;13.20;99.90
6538;DHT22;3302;52.508;13.454;2022-10-17T05:12:09;13.20;99.90
6538;DHT22;3302;52.508;13.454;2022-10-17T05:14:34;13.10;99.90
6538;DHT22;3302;52.508;13.454;2022-10-17T05:17:00;13.10;99.90
6538;DHT22;3302;52.508;13.454;2022-10-17T05:19:26;13.00;99.90
6538;DHT22;3302;52.508;13.454;2022-10-17T05:21:51;13.10;99.90
6538;DHT22;3302;52.508;13.454;2022-10-17T05:24:17;13.00;99.90
6538;DHT22;3302;52.508;13.454;2022-10-17T05:26:43;13.00;99.90
6538;DHT22;3302;52.508;13.454;2022-10-17T05:29:09;13.00;99.90
6538;DHT22;3302;52.508;13.454;2022-10-17T05:31:34;13.00;99.90
6538;DHT22;3302;52.508;13.454;2022-10-17T05:34:01;13.10;99.90
6538;DHT22;3302;52.508;13.454;2022-10-17T05:36:27;13.00;99.90
6538;DHT22;3302;52.508;13.454;2022-10-17T05:38:53;13.00;99.90
6538;DHT22;3302;52.508;13.454;2022-10-17T05:41:19;13.10;99.90
6538;DHT22;3302;52.508;13.454;2022-10-17T05:43:45;13.10;99.90
6538;DHT22;3302;52.508;13.454;2022-10-17T05:46:11;13.10;99.90
6538;DHT22;3302;52.508;13.454;2022-10-17T05:48:36;13.10;99.90
6538;DHT22;3302;52.508;13.454;2022-10-17T05:51:07;13.10;99.90
6538;DHT22;3302;52.508;13.454;2022-10-17T05:53:38;13.00;99.90
6538;DHT22;3302;52.508;13.454;2022-10-17T05:56:07;13.00;99.90
6538;DHT22;3302;52.508;13.454;2022-10-17T05:58:33;13.10;99.90
6538;DHT22;3302;52.508;13.454;2022-10-17T06:01:04;13.10;99.90
6538;DHT22;3302;52.508;13.454;2022-10-17T06:03:31;13.10;99.90
6538;DHT22;3302;52.508;13.454;2022-10-17T06:06:03;13.10;99.90
6538;DHT22;3302;52.508;13.454;2022-10-17T06:08:29;13.20;99.90
6538;DHT22;3302;52.508;13.454;2022-10-17T06:10:55;13.30;99.90
6538;DHT22;3302;52.508;13.454;2022-10-17T06:13:20;13.20;99.90
6538;DHT22;3302;52.508;13.454;2022-10-17T06:15:46;13.20;99.90
6538;DHT22;3302;52.508;13.454;2022-10-17T06:18:12;13.20;99.90
6538;DHT22;3302;52.508;13.454;2022-10-17T06:20:37;13.20;99.90
6538;DHT22;3302;52.508;13.454;2022-10-17T06:23:04;13.20;99.90
6538;DHT22;3302;52.508;13.454;2022-10-17T06:25:31;13.20;99.90
6538;DHT22;3302;52.508;13.454;2022-10-17T06:27:57;13.20;99.90
6538;DHT22;3302;52.508;13.454;2022-10-17T06:30:22;13.30;99.90
6538;DHT22;3302;52.508;13.454;2022-10-17T06:32:48;13.30;99.90
6538;DHT22;3302;52.508;13.454;2022-10-17T06:35:14;13.40;99.90
6538;DHT22;3302;52.508;13.454;2022-10-17T06:37:40;13.40;99.90
6538;DHT22;3302;52.508;13.454;2022-10-17T06:40:06;13.40;99.90
6538;DHT22;3302;52.508;13.454;2022-10-17T06:42:33;13.50;99.90
6538;DHT22;3302;52.508;13.454;2022-10-17T06:44:59;13.50;99.90
6538;DHT22;3302;52.508;13.454;2022-10-17T06:47:25;13.50;99.90
6538;DHT22;3302;52.508;13.454;2022-10-17T06:49:50;13.60;99.90
6538;DHT22;3302;52.508;13.454;2022-10-17T06:52:16;13.60;99.90
6538;DHT22;3302;52.508;13.454;2022-10-17T06:54:43;13.60;99.90
6538;DHT22;3302;52.508;13.454;2022-10-17T06:57:09;13.70;99.90
6538;DHT22;3302;52.508;13.454;2022-10-17T06:59:34;13.80;99.90
6538;DHT22;3302;52.508;13.454;2022-10-17T07:02:01;13.80;99.90
6538;DHT22;3302;52.508;13.454;2022-10-17T07:04:27;13.80;99.90
6538;DHT22;3302;52.508;13.454;2022-10-17T07:06:53;13.80;99.90
6538;DHT22;3302;52.508;13.454;2022-10-17T07:09:19;13.90;99.90
6538;DHT22;3302;52.508;13.454;2022-10-17T07:11:45;13.90;99.90
6538;DHT22;3302;52.508;13.454;2022-10-17T07:14:10;14.00;99.90
6538;DHT22;3302;52.508;13.454;2022-10-17T07:16:36;14.00;99.90
6538;DHT22;3302;52.508;13.454;2022-10-17T07:19:02;14.10;99.90
6538;DHT22;3302;52.508;13.454;2022-10-17T07:21:27;14.20;99.90
6538;DHT22;3302;52.508;13.454;2022-10-17T07:23:53;14.20;99.90
6538;DHT22;3302;52.508;13.454;2022-10-17T07:26:19;14.30;99.90
6538;DHT22;3302;52.508;13.454;2022-10-17T07:28:50;14.40;99.90
6538;DHT22;3302;52.508;13.454;2022-10-17T07:31:18;14.60;99.90
6538;DHT22;3302;52.508;13.454;2022-10-17T07:33:45;14.60;99.90
6538;DHT22;3302;52.508;13.454;2022-10-17T07:36:11;14.60;99.90
6538;DHT22;3302;52.508;13.454;2022-10-17T07:38:37;14.60;99.90
6538;DHT22;3302;52.508;13.454;2022-10-17T07:41:06;14.70;99.90
6538;DHT22;3302;52.508;13.454;2022-10-17T07:43:32;14.80;99.90
6538;DHT22;3302;52.508;13.454;2022-10-17T07:46:00;14.90;99.90
6538;DHT22;3302;52.508;13.454;2022-10-17T07:48:26;15.00;99.90
6538;DHT22;3302;52.508;13.454;2022-10-17T07:50:52;15.10;99.90
6538;DHT22;3302;52.508;13.454;2022-10-17T07:53:18;15.10;99.90
6538;DHT22;3302;52.508;13.454;2022-10-17T07:55:44;15.20;99.90
6538;DHT22;3302;52.508;13.454;2022-10-17T07:58:11;15.30;99.90
6538;DHT22;3302;52.508;13.454;2022-10-17T08:00:37;15.30;99.90
6538;DHT22;3302;52.508;13.454;2022-10-17T08:03:04;15.40;99.90
6538;DHT22;3302;52.508;13.454;2022-10-17T08:05:31;15.50;99.90
6538;DHT22;3302;52.508;13.454;2022-10-17T08:07:57;15.50;99.90
6538;DHT22;3302;52.508;13.454;2022-10-17T08:10:23;15.60;99.90
6538;DHT22;3302;52.508;13.454;2022-10-17T08:12:55;15.70;99.90
6538;DHT22;3302;52.508;13.454;2022-10-17T08:15:22;15.80;99.90
6538;DHT22;3302;52.508;13.454;2022-10-17T08:17:48;15.90;99.90
6538;DHT22;3302;52.508;13.454;2022-10-17T08:20:14;16.10;99.90
6538;DHT22;3302;52.508;13.454;2022-10-17T08:22:40;16.20;99.90
6538;DHT22;3302;52.508;13.454;2022-10-17T08:25:06;16.20;99.90
6538;DHT22;3302;52.508;13.454;2022-10-17T08:27:33;16.40;99.90
6538;DHT22;3302;52.508;13.454;2022-10-17T08:29:59;16.40;99.90
6538;DHT22;3302;52.508;13.454;2022-10-17T08:32:26;16.50;99.90
6538;DHT22;3302;52.508;13.454;2022-10-17T08:34:53;16.50;99.90
6538;DHT22;3302;52.508;13.454;2022-10-17T08:37:21;16.50;99.90
6538;DHT22;3302;52.508;13.454;2022-10-17T08:39:47;16.50;99.90
6538;DHT22;3302;52.508;13.454;2022-10-17T08:47:40;16.90;99.90
6538;DHT22;3302;52.508;13.454;2022-10-17T08:50:11;17.10;99.90
6538;DHT22;3302;52.508;13.454;2022-10-17T08:52:51;17.10;99.90
6538;DHT22;3302;52.508;13.454;2022-10-17T08:55:30;17.20;99.90
6538;DHT22;3302;52.508;13.454;2022-10-17T08:57:57;17.40;99.90
6538;DHT22;3302;52.508;13.454;2022-10-17T09:00:24;17.60;99.90
6538;DHT22;3302;52.508;13.454;2022-10-17T09:03:19;17.60;99.90
6538;DHT22;3302;52.508;13.454;2022-10-17T09:06:16;17.70;99.90
6538;DHT22;3302;52.508;13.454;2022-10-17T09:09:20;18.00;99.90
6538;DHT22;3302;52.508;13.454;2022-10-17T09:14:35;18.30;99.90
6538;DHT22;3302;52.508;13.454;2022-10-17T09:17:26;18.30;99.90
6538;DHT22;3302;52.508;13.454;2022-10-17T09:20:13;18.40;99.90
6538;DHT22;3302;52.508;13.454;2022-10-17T09:22:57;18.50;99.90
6538;DHT22;3302;52.508;13.454;2022-10-17T09:25:24;18.50;99.90
6538;DHT22;3302;52.508;13.454;2022-10-17T09:32:57;18.90;99.90
6538;DHT22;3302;52.508;13.454;2022-10-17T09:35:24;18.90;99.90
6538;DHT22;3302;52.508;13.454;2022-10-17T09:37:52;19.10;99.90
6538;DHT22;3302;52.508;13.454;2022-10-17T09:40:27;19.30;99.90
6538;DHT22;3302;52.508;13.454;2022-10-17T09:42:55;19.50;99.90
6538;DHT22;3302;52.508;13.454;2022-10-17T09:45:22;19.50;99.90
6538;DHT22;3302;52.508;13.454;2022-10-17T09:48:24;19.50;99.90
6538;DHT22;3302;52.508;13.454;2022-10-17T09:50:51;19.50;99.90
6538;DHT22;3302;52.508;13.454;2022-10-17T09:53:26;19.50;99.90
6538;DHT22;3302;52.508;13.454;2022-10-17T09:55:56;19.60;99.90
6538;DHT22;3302;52.508;13.454;2022-10-17T09:58:23;19.70;99.90
6538;DHT22;3302;52.508;13.454;2022-10-17T10:01:29;19.80;99.90
6538;DHT22;3302;52.508;13.454;2022-10-17T10:04:15;20.00;99.90
6538;DHT22;3302;52.508;13.454;2022-10-17T10:07:01;20.10;99.90
6538;DHT22;3302;52.508;13.454;2022-10-17T10:09:30;20.20;99.90
6538;DHT22;3302;52.508;13.454;2022-10-17T10:11:58;20.40;99.90
6538;DHT22;3302;52.508;13.454;2022-10-17T10:14:33;20.50;99.90
6538;DHT22;3302;52.508;13.454;2022-10-17T10:17:04;20.60;99.90
6538;DHT22;3302;52.508;13.454;2022-10-17T10:19:33;20.70;99.90
6538;DHT22;3302;52.508;13.454;2022-10-17T10:22:01;20.80;99.90
6538;DHT22;3302;52.508;13.454;2022-10-17T10:24:28;20.80;99.90
6538;DHT22;3302;52.508;13.454;2022-10-17T10:26:56;20.80;99.90
6538;DHT22;3302;52.508;13.454;2022-10-17T10:29:55;20.80;99.90
6538;DHT22;3302;52.508;13.454;2022-10-17T10:34:53;21.00;99.90
6538;DHT22;3302;52.508;13.454;2022-10-17T10:37:35;21.00;99.90
6538;DHT22;3302;52.508;13.454;2022-10-17T10:40:04;21.10;99.60
6538;DHT22;3302;52.508;13.454;2022-10-17T10:42:40;21.20;99.30
6538;DHT22;3302;52.508;13.454;2022-10-17T10:45:15;21.30;99.50
6538;DHT22;3302;52.508;13.454;2022-10-17T10:50:43;21.40;98.90
6538;DHT22;3302;52.508;13.454;2022-10-17T10:55:53;21.60;97.70
6538;DHT22;3302;52.508;13.454;2022-10-17T10:58:30;21.70;97.40
6538;DHT22;3302;52.508;13.454;2022-10-17T11:01:02;21.90;97.00
6538;DHT22;3302;52.508;13.454;2022-10-17T11:03:35;21.80;96.50
6538;DHT22;3302;52.508;13.454;2022-10-17T11:06:05;21.80;96.60
6538;DHT22;3302;52.508;13.454;2022-10-17T11:08:43;21.90;96.50
6538;DHT22;3302;52.508;13.454;2022-10-17T11:11:27;22.00;96.20
6538;DHT22;3302;52.508;13.454;2022-10-17T11:14:00;22.10;95.70
6538;DHT22;3302;52.508;13.454;2022-10-17T11:16:31;22.20;95.50
6538;DHT22;3302;52.508;13.454;2022-10-17T11:24:51;22.40;95.30
6538;DHT22;3302;52.508;13.454;2022-10-17T11:27:23;22.50;95.60
6538;DHT22;3302;52.508;13.454;2022-10-17T11:29:49;22.50;95.60
6538;DHT22;3302;52.508;13.454;2022-10-17T11:32:34;22.60;95.60
6538;DHT22;3302;52.508;13.454;2022-10-17T11:40:49;22.70;94.40
6538;DHT22;3302;52.508;13.454;2022-10-17T11:43:23;22.60;94.70
6538;DHT22;3302;52.508;13.454;2022-10-17T11:45:55;22.60;95.00
6538;DHT22;3302;52.508;13.454;2022-10-17T11:48:33;22.70;94.70
6538;DHT22;3302;52.508;13.454;2022-10-17T11:51:12;22.70;94.70
6538;DHT22;3302;52.508;13.454;2022-10-17T11:54:00;22.70;94.30
6538;DHT22;3302;52.508;13.454;2022-10-17T12:02:17;22.70;94.00
6538;DHT22;3302;52.508;13.454;2022-10-17T12:04:56;22.80;94.10
6538;DHT22;3302;52.508;13.454;2022-10-17T12:07:44;22.90;93.60
6538;DHT22;3302;52.508;13.454;2022-10-17T12:10:25;22.90;93.60
6538;DHT22;3302;52.508;13.454;2022-10-17T12:12:51;23.10;93.40
6538;DHT22;3302;52.508;13.454;2022-10-17T12:17:59;23.00;93.30
6538;DHT22;3302;52.508;13.454;2022-10-17T12:20:37;23.10;93.00
6538;DHT22;3302;52.508;13.454;2022-10-17T12:25:52;23.20;92.60
6538;DHT22;3302;52.508;13.454;2022-10-17T12:28:30;23.30;92.50
6538;DHT22;3302;52.508;13.454;2022-10-17T12:31:03;23.30;92.60
6538;DHT22;3302;52.508;13.454;2022-10-17T12:33:51;23.30;92.80
6538;DHT22;3302;52.508;13.454;2022-10-17T12:38:45;23.30;92.30
6538;DHT22;3302;52.508;13.454;2022-10-17T12:41:12;23.30;92.40
6538;DHT22;3302;52.508;13.454;2022-10-17T12:43:52;23.40;92.40
6538;DHT22;3302;52.508;13.454;2022-10-17T12:46:40;23.50;92.00
6538;DHT22;3302;52.508;13.454;2022-10-17T12:49:25;23.60;91.50
6538;DHT22;3302;52.508;13.454;2022-10-17T12:52:50;23.60;91.50
6538;DHT22;3302;52.508;13.454;2022-10-17T12:55:16;23.50;91.20
6538;DHT22;3302;52.508;13.454;2022-10-17T12:58:04;23.60;90.90
6538;DHT22;3302;52.508;13.454;2022-10-17T13:00:34;23.50;90.80
6538;DHT22;3302;52.508;13.454;2022-10-17T13:03:18;23.60;90.90
6538;DHT22;3302;52.508;13.454;2022-10-17T13:05:53;23.50;91.00
6538;DHT22;3302;52.508;13.454;2022-10-17T13:08:26;23.50;91.30
6538;DHT22;3302;52.508;13.454;2022-10-17T13:10:54;23.50;91.30
6538;DHT22;3302;52.508;13.454;2022-10-17T13:15:58;23.50;90.80
6538;DHT22;3302;52.508;13.454;2022-10-17T13:18:27;23.40;90.90
6538;DHT22;3302;52.508;13.454;2022-10-17T13:21:14;23.40;91.00
6538;DHT22;3302;52.508;13.454;2022-10-17T13:23:40;23.40;91.00
6538;DHT22;3302;52.508;13.454;2022-10-17T13:26:18;23.50;91.10
6538;DHT22;3302;52.508;13.454;2022-10-17T13:29:08;23.40;90.90
6538;DHT22;3302;52.508;13.454;2022-10-17T13:31:37;23.40;91.00
6538;DHT22;3302;52.508;13.454;2022-10-17T13:34:05;23.40;90.90
6538;DHT22;3302;52.508;13.454;2022-10-17T13:36:32;23.30;91.10
6538;DHT22;3302;52.508;13.454;2022-10-17T13:39:04;23.30;91.20
6538;DHT22;3302;52.508;13.454;2022-10-17T13:41:31;23.30;91.30
6538;DHT22;3302;52.508;13.454;2022-10-17T13:44:00;23.30;91.40
6538;DHT22;3302;52.508;13.454;2022-10-17T13:46:28;23.20;91.70
6538;DHT22;3302;52.508;13.454;2022-10-17T13:48:55;23.30;91.50
6538;DHT22;3302;52.508;13.454;2022-10-17T13:51:22;23.30;91.70
6538;DHT22;3302;52.508;13.454;2022-10-17T13:53:48;23.30;91.60
6538;DHT22;3302;52.508;13.454;2022-10-17T13:56:27;23.30;91.50
6538;DHT22;3302;52.508;13.454;2022-10-17T13:58:56;23.30;91.70
6538;DHT22;3302;52.508;13.454;2022-10-17T14:01:25;23.20;91.70
6538;DHT22;3302;52.508;13.454;2022-10-17T14:03:52;23.30;91.60
6538;DHT22;3302;52.508;13.454;2022-10-17T14:06:25;23.30;91.60
6538;DHT22;3302;52.508;13.454;2022-10-17T14:08:58;23.20;91.50
6538;DHT22;3302;52.508;13.454;2022-10-17T14:11:45;23.10;91.60
6538;DHT22;3302;52.508;13.454;2022-10-17T14:14:22;23.20;91.50
6538;DHT22;3302;52.508;13.454;2022-10-17T14:16:48;23.30;91.10
6538;DHT22;3302;52.508;13.454;2022-10-17T14:19:26;23.30;91.20
6538;DHT22;3302;52.508;13.454;2022-10-17T14:21:55;23.40;91.30
6538;DHT22;3302;52.508;13.454;2022-10-17T14:26:49;23.30;91.30
6538;DHT22;3302;52.508;13.454;2022-10-17T14:29:48;23.30;91.30
6538;DHT22;3302;52.508;13.454;2022-10-17T14:32:14;23.40;91.30
6538;DHT22;3302;52.508;13.454;2022-10-17T14:34:40;23.40;91.40
6538;DHT22;3302;52.508;13.454;2022-10-17T14:37:23;23.40;91.30
6538;DHT22;3302;52.508;13.454;2022-10-17T14:39:52;23.50;91.10
6538;DHT22;3302;52.508;13.454;2022-10-17T14:42:21;23.50;91.00
6538;DHT22;3302;52.508;13.454;2022-10-17T14:44:51;23.50;91.10
6538;DHT22;3302;52.508;13.454;2022-10-17T14:47:20;23.50;91.40
6538;DHT22;3302;52.508;13.454;2022-10-17T14:49:51;23.70;91.30
6538;DHT22;3302;52.508;13.454;2022-10-17T14:52:28;23.60;91.40
6538;DHT22;3302;52.508;13.454;2022-10-17T14:54:54;23.40;91.50
6538;DHT22;3302;52.508;13.454;2022-10-17T14:59:59;23.30;92.00
6538;DHT22;3302;52.508;13.454;2022-10-17T15:02:26;23.20;92.10
6538;DHT22;3302;52.508;13.454;2022-10-17T15:04:52;23.20;92.30
6538;DHT22;3302;52.508;13.454;2022-10-17T15:07:19;23.10;92.50
6538;DHT22;3302;52.508;13.454;2022-10-17T15:09:50;23.00;92.70
6538;DHT22;3302;52.508;13.454;2022-10-17T15:12:18;23.00;92.80
6538;DHT22;3302;52.508;13.454;2022-10-17T15:14:44;22.90;93.00
6538;DHT22;3302;52.508;13.454;2022-10-17T15:17:17;22.90;93.40
6538;DHT22;3302;52.508;13.454;2022-10-17T15:19:45;22.80;93.60
6538;DHT22;3302;52.508;13.454;2022-10-17T15:22:11;22.80;93.80
6538;DHT22;3302;52.508;13.454;2022-10-17T15:24:37;22.70;93.90
6538;DHT22;3302;52.508;13.454;2022-10-17T15:27:08;22.60;93.90
6538;DHT22;3302;52.508;13.454;2022-10-17T15:29:35;22.60;94.30
6538;DHT22;3302;52.508;13.454;2022-10-17T15:32:01;22.60;94.20
6538;DHT22;3302;52.508;13.454;2022-10-17T15:34:27;22.50;94.40
6538;DHT22;3302;52.508;13.454;2022-10-17T15:36:52;22.50;94.60
6538;DHT22;3302;52.508;13.454;2022-10-17T15:39:18;22.40;94.70
6538;DHT22;3302;52.508;13.454;2022-10-17T15:41:44;22.50;94.90
6538;DHT22;3302;52.508;13.454;2022-10-17T15:44:13;22.40;95.10
6538;DHT22;3302;52.508;13.454;2022-10-17T15:46:39;22.30;95.30
6538;DHT22;3302;52.508;13.454;2022-10-17T15:49:10;22.20;95.60
6538;DHT22;3302;52.508;13.454;2022-10-17T15:51:36;22.20;95.70
6538;DHT22;3302;52.508;13.454;2022-10-17T15:54:02;22.10;96.00
6538;DHT22;3302;52.508;13.454;2022-10-17T15:56:39;22.10;96.20
6538;DHT22;3302;52.508;13.454;2022-10-17T15:59:10;22.10;96.20
6538;DHT22;3302;52.508;13.454;2022-10-17T16:01:38;22.20;95.90
6538;DHT22;3302;52.508;13.454;2022-10-17T16:04:04;22.20;95.70
6538;DHT22;3302;52.508;13.454;2022-10-17T16:06:29;22.20;95.50
6538;DHT22;3302;52.508;13.454;2022-10-17T16:08:55;22.10;95.50
6538;DHT22;3302;52.508;13.454;2022-10-17T16:11:28;22.00;95.90
6538;DHT22;3302;52.508;13.454;2022-10-17T16:13:57;22.00;95.90
6538;DHT22;3302;52.508;13.454;2022-10-17T16:16:23;22.00;96.00
6538;DHT22;3302;52.508;13.454;2022-10-17T16:18:49;21.90;96.10
6538;DHT22;3302;52.508;13.454;2022-10-17T16:21:16;21.80;96.40
6538;DHT22;3302;52.508;13.454;2022-10-17T16:23:42;21.70;96.60
6538;DHT22;3302;52.508;13.454;2022-10-17T16:26:08;21.70;96.80
6538;DHT22;3302;52.508;13.454;2022-10-17T16:28:34;21.60;96.90
6538;DHT22;3302;52.508;13.454;2022-10-17T16:31:00;21.60;97.10
6538;DHT22;3302;52.508;13.454;2022-10-17T16:33:26;21.50;97.20
6538;DHT22;3302;52.508;13.454;2022-10-17T16:35:52;21.50;97.30
6538;DHT22;3302;52.508;13.454;2022-10-17T16:38:18;21.40;97.50
6538;DHT22;3302;52.508;13.454;2022-10-17T16:40:43;21.30;97.80
6538;DHT22;3302;52.508;13.454;2022-10-17T16:43:11;21.30;98.00
6538;DHT22;3302;52.508;13.454;2022-10-17T16:45:37;21.20;98.10
6538;DHT22;3302;52.508;13.454;2022-10-17T16:48:03;21.10;98.60
6538;DHT22;3302;52.508;13.454;2022-10-17T16:50:29;21.00;98.90
6538;DHT22;3302;52.508;13.454;2022-10-17T16:53:00;21.00;99.10
6538;DHT22;3302;52.508;13.454;2022-10-17T16:55:26;21.00;99.50
6538;DHT22;3302;52.508;13.454;2022-10-17T16:57:52;21.00;99.50
6538;DHT22;3302;52.508;13.454;2022-10-17T17:00:18;20.80;99.70
6538;DHT22;3302;52.508;13.454;2022-10-17T17:02:46;20.80;99.90
6538;DHT22;3302;52.508;13.454;2022-10-17T17:05:12;20.70;99.90
6538;DHT22;3302;52.508;13.454;2022-10-17T17:07:38;20.70;99.90
6538;DHT22;3302;52.508;13.454;2022-10-17T17:10:04;20.70;99.90
6538;DHT22;3302;52.508;13.454;2022-10-17T17:12:32;20.70;99.90
6538;DHT22;3302;52.508;13.454;2022-10-17T17:14:58;20.70;99.90
6538;DHT22;3302;52.508;13.454;2022-10-17T17:17:24;20.60;99.90